Terminal Aerodrome Forecast
Issued by NWS Sterling, VA

Current Version | Previous Version | Text Only | Print | Product List | Glossary Off
Versions: 1 2 3 4 5 6 7 8 9 10 11 12 13 14 15 16 17 18 19 20 21 22 23 24 25 26 27 28 29

000
FTUS41 KLWX 021737
TAFIAD
TAF
KIAD 021737Z 0218/0324 32006KT P6SM BKN120
      TEMPO 0220/0222 3SM -TSRA BKN040CB
     FM022200 29006KT P6SM VCTS BKN050CB
     FM030200 28004KT P6SM SCT060
     FM030900 32004KT 5SM BR SCT060
     FM031200 32005KT P6SM SCT250
     FM031800 33006KT P6SM SCT050
     FM032300 34004KT P6SM BKN050=

USA.gov is the U.S. government's official web portal to all federal, state and local government web resources and services.